Time;durP1;ratioP1;P1;durP2;ratioP2;P2;SDS_P1;SDS_P2;PMS_P1;PMS_P2;Temp;Humidity;BMP_temperature;BMP_pressure;BME280_temperature;BME280_humidity;BME280_pressure;Samples;Min_cycle;Max_cycle;Signal;HPM_P1;HPM_P2
2023/08/11 00:01:15;;;;;;;9.18;6.20;;;;;;;-142.75;100.00;76515.19;5086543;28;20055;-61
2023/08/11 00:03:43;;;;;;;10.30;6.90;;;;;;;-142.75;100.00;76509.28;5068538;28;20067;-61
2023/08/11 00:06:08;;;;;;;10.32;7.28;;;;;;;-142.75;100.00;76525.03;5068849;28;20032;-61
2023/08/11 00:08:36;;;;;;;10.80;7.53;;;;;;;-142.75;100.00;76530.91;5070084;28;20028;-61
2023/08/11 00:11:02;;;;;;;11.95;7.05;;;;;;;-142.75;100.00;76527.00;5068550;28;20099;-61
2023/08/11 00:13:27;;;;;;;12.65;6.97;;;;;;;-142.75;100.00;76521.09;5068447;28;20022;-61
2023/08/11 00:15:53;;;;;;;10.10;6.53;;;;;;;-142.75;100.00;76525.03;5068115;28;20407;-62
2023/08/11 00:18:19;;;;;;;8.25;6.38;;;;;;;-142.75;100.00;76525.03;5066883;28;20028;-62
2023/08/11 00:20:45;;;;;;;10.90;6.38;;;;;;;-142.75;100.00;76527.00;5068441;28;20025;-61
2023/08/11 00:23:10;;;;;;;10.23;6.07;;;;;;;-142.75;100.00;76523.06;5068306;28;20016;-62
2023/08/11 00:25:36;;;;;;;7.85;6.13;;;;;;;-142.75;100.00;76530.91;5072612;28;20042;-61
2023/08/11 00:28:01;;;;;;;11.77;6.25;;;;;;;-142.75;100.00;76515.19;5074611;28;20017;-62
2023/08/11 00:30:27;;;;;;;10.32;6.18;;;;;;;-142.75;100.00;76519.13;5080481;28;20035;-61
2023/08/11 00:32:52;;;;;;;9.77;5.97;;;;;;;-142.75;100.00;76527.00;5088118;28;20543;-62
2023/08/11 00:35:17;;;;;;;9.73;5.80;;;;;;;-142.75;100.00;76534.84;5088228;28;20051;-62
2023/08/11 00:37:43;;;;;;;9.30;5.75;;;;;;;-142.75;100.00;76542.72;5088155;28;20546;-61
2023/08/11 00:40:09;;;;;;;10.55;6.32;;;;;;;-142.75;100.00;76550.59;5088172;28;20027;-61
2023/08/11 00:42:35;;;;;;;9.45;6.22;;;;;;;-142.75;100.00;76548.63;5087897;28;20049;-62
2023/08/11 00:45:00;;;;;;;7.43;6.03;;;;;;;-142.75;100.00;76534.84;5086576;28;20356;-62
2023/08/11 00:47:29;;;;;;;9.30;6.32;;;;;;;-142.75;100.00;76523.06;5072872;28;20039;-61
2023/08/11 00:49:55;;;;;;;7.93;5.53;;;;;;;-142.75;100.00;76536.84;5066864;28;20039;-60
2023/08/11 00:52:21;;;;;;;8.50;6.13;;;;;;;-142.75;100.00;76530.91;5067604;28;20115;-62
2023/08/11 00:54:47;;;;;;;8.75;6.38;;;;;;;-142.75;100.00;76528.97;5068124;28;20100;-62
2023/08/11 00:57:13;;;;;;;8.45;6.07;;;;;;;-142.75;100.00;76523.06;5083175;28;20020;-61
2023/08/11 00:59:39;;;;;;;11.48;6.55;;;;;;;-142.75;100.00;76525.03;5088197;28;20032;-62
2023/08/11 01:02:06;;;;;;;11.27;6.13;;;;;;;-142.75;100.00;76528.97;5087888;28;20035;-62
2023/08/11 01:04:33;;;;;;;9.90;6.00;;;;;;;-142.75;100.00;76532.88;5087373;28;20028;-62
2023/08/11 01:07:21;;;;;;;10.07;6.32;;;;;;;-142.75;100.00;76530.91;5087814;28;20032;-61
2023/08/11 01:10:04;;;;;;;8.75;6.20;;;;;;;-142.75;100.00;76540.75;5076099;28;20373;-61
2023/08/11 01:12:31;;;;;;;7.85;6.65;;;;;;;-142.75;100.00;76532.88;5067100;28;20024;-60
2023/08/11 01:15:10;;;;;;;9.60;7.25;;;;;;;-142.75;100.00;76554.53;5079258;28;20081;-61
2023/08/11 01:17:38;;;;;;;9.98;6.97;;;;;;;-142.75;100.00;76558.47;5087526;28;21901;-61
2023/08/11 01:20:10;;;;;;;9.57;6.65;;;;;;;-142.75;100.00;76558.47;5074352;28;20157;-61
2023/08/11 01:22:37;;;;;;;10.60;7.38;;;;;;;-142.75;100.00;76546.66;5067264;28;20040;-61
2023/08/11 01:25:02;;;;;;;9.88;7.18;;;;;;;-142.75;100.00;76542.72;5067680;28;20077;-62
2023/08/11 01:27:28;;;;;;;8.38;6.60;;;;;;;-142.75;100.00;76542.72;5072858;28;20027;-62
2023/08/11 01:29:54;;;;;;;9.25;6.90;;;;;;;-142.75;100.00;76550.59;5087647;28;20024;-61
2023/08/11 01:32:19;;;;;;;9.57;7.10;;;;;;;-142.75;100.00;76542.72;5082045;28;20035;-62
2023/08/11 01:34:44;;;;;;;8.65;6.50;;;;;;;-142.75;100.00;76527.00;5066952;28;20024;-61
2023/08/11 01:37:10;;;;;;;10.63;6.90;;;;;;;-142.75;100.00;76530.91;5085667;28;20028;-62
2023/08/11 01:39:35;;;;;;;11.00;6.88;;;;;;;-142.75;100.00;76525.03;5087357;28;20024;-62
2023/08/11 01:42:01;;;;;;;13.20;7.90;;;;;;;-142.75;100.00;76530.91;5070490;28;20090;-61
2023/08/11 01:44:27;;;;;;;9.50;6.72;;;;;;;-142.75;100.00;76540.75;5083701;28;20035;-61
2023/08/11 01:46:55;;;;;;;10.55;7.60;;;;;;;-142.75;100.00;76534.84;5084006;28;20078;-61
2023/08/11 01:49:24;;;;;;;11.63;7.30;;;;;;;-142.75;100.00;76530.91;5067102;28;20111;-61
2023/08/11 01:51:49;;;;;;;10.10;6.80;;;;;;;-142.75;100.00;76538.78;5066890;28;20020;-61
2023/08/11 01:54:15;;;;;;;12.27;6.80;;;;;;;-142.75;100.00;76527.00;5076407;28;20091;-61
2023/08/11 01:56:42;;;;;;;12.13;7.38;;;;;;;-142.75;100.00;76527.00;5072073;28;20035;-61
2023/08/11 01:59:12;;;;;;;11.18;7.43;;;;;;;-142.75;100.00;76530.91;5067369;28;20046;-61
2023/08/11 02:01:38;;;;;;;11.63;7.20;;;;;;;-142.75;100.00;76546.66;5071628;28;20431;-61
2023/08/11 02:04:05;;;;;;;10.63;6.95;;;;;;;-142.75;100.00;76550.59;5079853;28;20139;-62
2023/08/11 02:06:30;;;;;;;10.52;7.15;;;;;;;-142.75;100.00;76560.44;5091084;28;20039;-62
2023/08/11 02:08:56;;;;;;;11.98;7.90;;;;;;;-142.75;100.00;76566.34;5090478;28;20019;-61
2023/08/11 02:11:22;;;;;;;8.85;6.45;;;;;;;-142.75;100.00;76566.34;5090921;28;20434;-61
2023/08/11 02:13:47;;;;;;;11.20;7.55;;;;;;;-142.75;100.00;76568.31;5090680;28;20035;-61
2023/08/11 02:16:13;;;;;;;10.05;7.18;;;;;;;-142.75;100.00;76568.31;5090975;28;20035;-61
2023/08/11 02:18:39;;;;;;;11.82;7.20;;;;;;;-142.75;100.00;76568.31;5089613;28;20051;-61
2023/08/11 02:21:06;;;;;;;9.95;7.65;;;;;;;-142.75;100.00;76576.19;5090895;28;20107;-61
2023/08/11 02:23:32;;;;;;;10.75;7.38;;;;;;;-142.75;100.00;76570.28;5076658;28;20508;-62
2023/08/11 02:25:57;;;;;;;9.18;6.57;;;;;;;-142.75;100.00;76570.28;5070672;28;20107;-61
2023/08/11 02:28:23;;;;;;;11.63;7.60;;;;;;;-142.75;100.00;76570.28;5070682;28;20031;-61
2023/08/11 02:30:48;;;;;;;11.23;7.65;;;;;;;-142.75;100.00;76572.25;5071023;28;20029;-62
2023/08/11 02:33:18;;;;;;;11.25;6.82;;;;;;;-142.75;100.00;76570.28;5088803;28;20036;-62
2023/08/11 02:35:43;;;;;;;9.82;7.18;;;;;;;-142.75;100.00;76566.34;5090722;28;20020;-61
2023/08/11 02:38:09;;;;;;;12.00;7.10;;;;;;;-142.75;100.00;76564.38;5090664;28;20036;-61
2023/08/11 02:40:35;;;;;;;13.32;7.28;;;;;;;-142.75;100.00;76554.53;5085864;28;20064;-62
2023/08/11 02:43:02;;;;;;;10.05;6.82;;;;;;;-142.75;100.00;76562.41;5069865;28;20020;-62
2023/08/11 02:45:27;;;;;;;9.85;6.75;;;;;;;-142.75;100.00;76558.47;5068922;28;21705;-61
2023/08/11 02:47:53;;;;;;;10.52;6.78;;;;;;;-142.75;100.00;76564.38;5070177;28;20025;-61
2023/08/11 02:50:18;;;;;;;8.50;7.40;;;;;;;-142.75;100.00;76558.47;5068688;28;20034;-61
2023/08/11 02:52:44;;;;;;;10.43;6.75;;;;;;;-142.75;100.00;76568.31;5069871;28;20021;-61
2023/08/11 02:55:09;;;;;;;10.88;7.32;;;;;;;-142.75;100.00;76554.53;5070352;28;20020;-61
2023/08/11 02:57:35;;;;;;;11.35;7.78;;;;;;;-142.75;100.00;76558.47;5069997;28;20098;-62
2023/08/11 03:00:07;;;;;;;10.57;7.70;;;;;;;-142.75;100.00;76550.59;5070219;28;20024;-61
2023/08/11 03:02:33;;;;;;;10.52;7.05;;;;;;;-142.75;100.00;76552.56;5088931;28;20467;-62
2023/08/11 03:04:58;;;;;;;11.85;7.22;;;;;;;-142.75;100.00;76554.53;5090120;28;20047;-62
2023/08/11 03:07:23;;;;;;;9.55;7.18;;;;;;;-142.75;100.00;76564.38;5090117;28;20031;-62
2023/08/11 03:09:49;;;;;;;11.35;6.78;;;;;;;-142.75;100.00;76558.47;5077152;28;20029;-61
2023/08/11 03:12:14;;;;;;;10.57;7.82;;;;;;;-142.75;100.00;76550.59;5088328;28;20028;-62
2023/08/11 03:14:41;;;;;;;10.35;8.07;;;;;;;-142.75;100.00;76550.59;5084466;28;20099;-61
2023/08/11 03:17:09;;;;;;;10.23;7.85;;;;;;;-142.75;100.00;76564.38;5075896;28;20525;-61
2023/08/11 03:19:35;;;;;;;9.82;7.28;;;;;;;-142.75;100.00;76554.53;5083081;28;20479;-62
2023/08/11 03:22:00;;;;;;;9.30;7.55;;;;;;;-142.75;100.00;76554.53;5069431;28;20025;-61
2023/08/11 03:24:26;;;;;;;10.30;6.82;;;;;;;-142.75;100.00;76548.63;5089728;28;20475;-62
2023/08/11 03:26:51;;;;;;;9.55;7.35;;;;;;;-142.75;100.00;76552.56;5089842;28;20073;-61
2023/08/11 03:29:17;;;;;;;11.27;7.13;;;;;;;-142.75;100.00;76548.63;5082790;28;20392;-62
2023/08/11 03:31:42;;;;;;;10.10;7.55;;;;;;;-142.75;100.00;76554.53;5069595;28;20087;-58
2023/08/11 03:34:08;;;;;;;13.00;8.05;;;;;;;-142.75;100.00;76550.59;5074436;28;20020;-61
2023/08/11 03:36:33;;;;;;;11.43;8.10;;;;;;;-142.75;100.00;76572.25;5089439;28;20031;-62
2023/08/11 03:38:59;;;;;;;11.13;7.57;;;;;;;-142.75;100.00;76572.25;5089404;28;20039;-61
2023/08/11 03:41:24;;;;;;;13.23;7.38;;;;;;;-142.75;100.00;76558.47;5089131;28;20020;-61
2023/08/11 03:43:49;;;;;;;11.93;7.53;;;;;;;-142.75;100.00;76554.53;5089327;28;20031;-62
2023/08/11 03:46:15;;;;;;;11.40;8.00;;;;;;;-142.75;100.00;76560.44;5089399;28;20050;-61
2023/08/11 03:48:41;;;;;;;11.75;8.23;;;;;;;-142.75;100.00;76558.47;5089348;28;20499;-62
2023/08/11 03:51:06;;;;;;;11.00;7.75;;;;;;;-142.75;100.00;76556.50;5089234;28;20103;-62
2023/08/11 03:53:36;;;;;;;9.20;7.38;;;;;;;-142.75;100.00;76552.56;5088887;28;20485;-62
2023/08/11 03:56:07;;;;;;;13.65;8.32;;;;;;;-142.75;100.00;76554.53;5080677;28;20043;-61
2023/08/11 03:58:35;;;;;;;11.13;8.05;;;;;;;-142.75;100.00;76550.59;5068749;28;20055;-63
2023/08/11 04:01:00;;;;;;;11.15;7.85;;;;;;;-142.75;100.00;76554.53;5069258;28;20017;-61
2023/08/11 04:03:28;;;;;;;11.10;7.75;;;;;;;-142.75;100.00;76562.41;5068435;28;20032;-61
2023/08/11 04:05:53;;;;;;;12.52;8.20;;;;;;;-142.75;100.00;76562.41;5068848;28;20028;-61
2023/08/11 04:08:20;;;;;;;12.48;8.68;;;;;;;-142.75;100.00;76562.41;5068638;28;20078;-61
2023/08/11 04:10:45;;;;;;;16.20;9.15;;;;;;;-142.75;100.00;76556.50;5068694;28;20021;-61
2023/08/11 04:13:11;;;;;;;11.95;8.05;;;;;;;-142.75;100.00;76572.25;5068360;28;20034;-61
2023/08/11 04:15:38;;;;;;;11.95;8.35;;;;;;;-142.75;100.00;76554.53;5068560;28;20632;-62
2023/08/11 04:18:04;;;;;;;12.07;8.80;;;;;;;-142.75;100.00;76558.47;5068496;28;20059;-62
2023/08/11 04:20:30;;;;;;;15.10;8.60;;;;;;;-142.75;100.00;76558.47;5068471;28;20052;-61
2023/08/11 04:22:56;;;;;;;13.13;8.25;;;;;;;-142.75;100.00;76554.53;5067776;28;20029;-61
2023/08/11 04:25:21;;;;;;;13.77;8.82;;;;;;;-142.75;100.00;76552.56;5068523;28;20082;-61
2023/08/11 04:27:47;;;;;;;14.48;8.07;;;;;;;-142.75;100.00;76554.53;5088203;28;20429;-62
2023/08/11 04:30:13;;;;;;;12.25;9.10;;;;;;;-142.75;100.00;76544.69;5089277;28;20430;-62
2023/08/11 04:32:38;;;;;;;11.45;8.55;;;;;;;-142.75;100.00;76550.59;5088027;28;20054;-62
2023/08/11 04:35:06;;;;;;;12.05;8.95;;;;;;;-142.75;100.00;76554.53;5088488;28;20099;-61
2023/08/11 04:37:33;;;;;;;12.60;9.07;;;;;;;-142.75;100.00;76556.50;5087984;28;20085;-62
2023/08/11 04:39:58;;;;;;;10.98;7.40;;;;;;;-142.75;100.00;76552.56;5075721;28;20024;-61
2023/08/11 04:42:23;;;;;;;12.07;9.10;;;;;;;-142.75;100.00;76562.41;5067563;28;20073;-61
2023/08/11 04:44:49;;;;;;;15.18;9.05;;;;;;;-142.75;100.00;76556.50;5078225;28;20028;-61
2023/08/11 04:47:14;;;;;;;13.05;8.63;;;;;;;-142.75;100.00;76558.47;5088167;28;20027;-61
2023/08/11 04:49:41;;;;;;;14.35;8.48;;;;;;;-142.75;100.00;76548.63;5085625;28;20026;-62
2023/08/11 04:52:07;;;;;;;12.38;9.02;;;;;;;-142.75;100.00;76554.53;5067952;28;20024;-61
2023/08/11 04:54:33;;;;;;;18.40;9.57;;;;;;;-142.75;100.00;76546.66;5067884;28;20021;-61
2023/08/11 04:56:59;;;;;;;11.73;8.68;;;;;;;-142.75;100.00;76550.59;5068000;28;20024;-61
2023/08/11 04:59:24;;;;;;;11.15;8.27;;;;;;;-142.75;100.00;76546.66;5067543;28;20089;-61
2023/08/11 05:01:50;;;;;;;14.00;8.80;;;;;;;-142.75;100.00;76552.56;5067717;28;20108;-61
2023/08/11 05:04:15;;;;;;;13.18;9.13;;;;;;;-142.75;100.00;76554.53;5075299;28;20073;-61
2023/08/11 05:06:40;;;;;;;12.23;8.13;;;;;;;-142.75;100.00;76558.47;5087821;28;20035;-61
2023/08/11 05:09:06;;;;;;;13.48;9.45;;;;;;;-142.75;100.00;76554.53;5087371;28;20062;-62
2023/08/11 05:11:31;;;;;;;11.23;8.07;;;;;;;-142.75;100.00;76560.44;5087676;28;20070;-61
2023/08/11 05:13:57;;;;;;;13.25;8.70;;;;;;;-142.75;100.00;76554.53;5067802;28;20024;-61
2023/08/11 05:16:23;;;;;;;14.32;8.98;;;;;;;-142.75;100.00;76542.72;5067329;28;20642;-61
2023/08/11 05:18:49;;;;;;;12.60;8.68;;;;;;;-142.75;100.00;76534.84;5086177;28;20107;-62
2023/08/11 05:21:14;;;;;;;13.02;9.32;;;;;;;-142.75;100.00;76527.00;5087574;28;20020;-61
2023/08/11 05:23:40;;;;;;;13.30;8.57;;;;;;;-142.75;100.00;76525.03;5087171;28;20028;-62
2023/08/11 05:26:05;;;;;;;10.88;8.23;;;;;;;-142.75;100.00;76523.06;5087911;28;20020;-61
2023/08/11 05:28:31;;;;;;;11.30;8.15;;;;;;;-142.75;100.00;76507.31;5087375;28;20026;-61
2023/08/11 05:30:56;;;;;;;11.57;8.48;;;;;;;-142.75;100.00;76501.41;5085075;28;20026;-61
2023/08/11 05:33:24;;;;;;;14.10;7.90;;;;;;;-142.75;100.00;76499.44;5069869;28;20032;-62
2023/08/11 05:35:49;;;;;;;14.35;8.50;;;;;;;-142.75;100.00;76489.59;5086343;28;20039;-61
2023/08/11 05:38:15;;;;;;;12.32;9.23;;;;;;;-142.75;100.00;76487.63;5087040;28;20028;-61
2023/08/11 05:40:41;;;;;;;14.75;8.90;;;;;;;-142.75;100.00;76471.88;5087370;28;20085;-61
2023/08/11 05:43:07;;;;;;;12.73;8.27;;;;;;;-142.75;100.00;76464.00;5075785;28;20664;-62
2023/08/11 05:45:32;;;;;;;11.35;8.20;;;;;;;-142.75;100.00;76460.06;5066986;28;20016;-62
2023/08/11 05:47:58;;;;;;;14.07;9.25;;;;;;;-142.75;100.00;76450.22;5067034;28;20020;-62
2023/08/11 05:50:23;;;;;;;11.75;8.07;;;;;;;-142.75;100.00;76452.19;5066899;28;20498;-61
2023/08/11 05:52:49;;;;;;;16.63;8.90;;;;;;;-142.75;100.00;76444.31;5066660;28;20032;-62
2023/08/11 05:55:14;;;;;;;17.48;9.13;;;;;;;-142.75;100.00;76440.38;5067196;28;20020;-61
2023/08/11 05:57:40;;;;;;;13.10;8.32;;;;;;;-142.75;100.00;76420.69;5066997;28;20423;-62
2023/08/11 06:00:06;;;;;;;16.40;8.43;;;;;;;-142.75;100.00;76416.75;5067048;28;20040;-61
2023/08/11 06:02:32;;;;;;;13.95;9.40;;;;;;;-142.75;100.00;76401.00;5067000;28;20103;-62
2023/08/11 06:04:57;;;;;;;14.50;8.35;;;;;;;-142.75;100.00;76377.38;5066842;28;20108;-62
2023/08/11 06:07:22;;;;;;;14.57;8.93;;;;;;;-142.75;100.00;76387.22;5066800;28;20086;-61
2023/08/11 06:09:48;;;;;;;14.35;7.88;;;;;;;-142.75;100.00;76377.38;5066927;28;20032;-61
2023/08/11 06:12:13;;;;;;;14.40;8.45;;;;;;;-142.75;100.00;76369.50;5066737;28;20114;-62
2023/08/11 06:14:38;;;;;;;14.80;8.48;;;;;;;-142.75;100.00;76357.69;5084924;28;20575;-62
2023/08/11 06:17:04;;;;;;;14.13;7.75;;;;;;;-142.75;100.00;76349.81;5086653;28;20024;-61
2023/08/11 06:19:30;;;;;;;15.77;6.78;;;;;;;-142.75;100.00;76341.97;5086718;28;20092;-62
2023/08/11 06:21:55;;;;;;;12.48;7.30;;;;;;;-142.75;100.00;76324.25;5086534;28;20107;-61
2023/08/11 06:24:22;;;;;;;12.48;7.22;;;;;;;-142.75;100.00;76341.97;5086192;28;20043;-63
2023/08/11 06:26:48;;;;;;;14.02;7.20;;;;;;;-142.75;100.00;76310.47;5087396;28;20023;-63
2023/08/11 06:29:13;;;;;;;15.48;7.55;;;;;;;-142.75;100.00;76300.63;5086810;28;20504;-63
2023/08/11 06:31:38;;;;;;;14.18;7.68;;;;;;;-142.75;100.00;76294.72;5071709;28;20036;-62
2023/08/11 06:34:04;;;;;;;14.57;7.63;;;;;;;-142.75;100.00;76290.78;5070715;28;20095;-62
2023/08/11 06:36:29;;;;;;;13.65;7.22;;;;;;;-142.75;100.00;76271.09;5079557;28;20562;-62
2023/08/11 06:38:56;;;;;;;14.38;6.43;;;;;;;-142.75;100.00;76263.22;5068747;28;20020;-62
2023/08/11 06:41:21;;;;;;;10.82;6.68;;;;;;;-142.75;100.00;76255.34;5071193;28;20035;-62
2023/08/11 06:43:47;;;;;;;16.20;7.20;;;;;;;-142.75;100.00;76241.56;5072224;28;20020;-62
2023/08/11 06:46:13;;;;;;;13.93;6.15;;;;;;;-142.75;100.00;76233.69;5071517;28;20031;-63
2023/08/11 06:48:38;;;;;;;10.32;6.20;;;;;;;-142.75;100.00;76212.03;5083237;28;20031;-62
2023/08/11 06:51:04;;;;;;;12.38;7.20;;;;;;;-142.75;100.00;76198.28;5074417;28;20024;-62
2023/08/11 06:53:29;;;;;;;10.68;6.55;;;;;;;-142.75;100.00;76200.25;5082755;28;20012;-62
2023/08/11 06:55:54;;;;;;;10.60;6.40;;;;;;;-142.75;100.00;76184.50;5086684;28;20517;-62
2023/08/11 06:58:20;;;;;;;12.80;6.70;;;;;;;-142.75;100.00;76176.63;5079659;28;20031;-62
2023/08/11 07:00:45;;;;;;;11.32;5.85;;;;;;;-142.75;100.00;76170.72;5080754;28;20099;-62
2023/08/11 07:03:10;;;;;;;9.73;5.80;;;;;;;-142.75;100.00;76141.19;5081170;28;20364;-63
2023/08/11 07:05:36;;;;;;;15.00;7.07;;;;;;;-142.75;100.00;76133.31;5083057;28;20031;-63
2023/08/11 07:08:02;;;;;;;12.60;6.10;;;;;;;-142.75;100.00;76125.44;5080284;28;20025;-63
2023/08/11 07:10:27;;;;;;;12.32;5.80;;;;;;;-142.75;100.00;76091.97;5086934;28;20032;-65
2023/08/11 07:12:53;;;;;;;11.45;5.63;;;;;;;-142.75;100.00;76080.16;5079181;28;20025;-62
2023/08/11 07:15:18;;;;;;;16.38;5.78;;;;;;;-142.75;100.00;76058.53;5082755;28;20028;-62
2023/08/11 07:17:44;;;;;;;9.55;5.65;;;;;;;-142.75;100.00;76072.31;5083792;28;20020;-63
2023/08/11 07:20:09;;;;;;;8.82;5.38;;;;;;;-142.75;100.00;76029.00;5083199;28;20031;-62
2023/08/11 07:22:35;;;;;;;8.68;4.88;;;;;;;-142.75;100.00;76013.25;5074564;28;20024;-62
2023/08/11 07:25:00;;;;;;;7.93;4.70;;;;;;;-142.75;100.00;75979.78;5071342;28;20161;-62
2023/08/11 07:27:25;;;;;;;9.82;4.72;;;;;;;-142.75;100.00;75952.25;5069284;28;20127;-62
2023/08/11 07:29:51;;;;;;;7.00;4.63;;;;;;;-142.75;100.00;75954.22;5068360;28;20024;-62
2023/08/11 07:32:16;;;;;;;7.93;4.45;;;;;;;-142.75;100.00;75928.63;5077951;28;20019;-63
2023/08/11 07:34:41;;;;;;;10.35;4.50;;;;;;;-142.75;100.00;75944.38;5070832;28;20568;-63
2023/08/11 07:37:07;;;;;;;7.57;4.22;;;;;;;-142.75;100.00;75918.78;5074109;28;20512;-63
2023/08/11 07:39:32;;;;;;;7.18;4.38;;;;;;;-142.75;100.00;75905.00;5078046;28;20019;-64
2023/08/11 07:42:02;;;;;;;8.23;4.15;;;;;;;-142.75;100.00;75899.09;5085048;28;20456;-63
2023/08/11 07:44:30;;;;;;;9.23;3.75;;;;;;;-142.75;100.00;75905.00;5075574;28;20403;-62
2023/08/11 07:46:55;;;;;;;10.57;4.10;;;;;;;-142.75;100.00;75857.78;5075879;28;20089;-62
2023/08/11 07:49:21;;;;;;;11.50;4.03;;;;;;;-142.75;100.00;75847.94;5074271;28;20024;-62
2023/08/11 07:51:47;;;;;;;8.13;3.95;;;;;;;-142.75;100.00;75812.50;5071417;28;20024;-62
2023/08/11 07:54:13;;;;;;;7.75;3.35;;;;;;;-142.75;100.00;75802.66;5069806;28;20012;-62
2023/08/11 07:56:39;;;;;;;270.67;19.05;;;;;;;-142.75;100.00;75794.78;5076428;28;21793;-62
2023/08/11 07:59:04;;;;;;;133.48;10.27;;;;;;;-142.75;100.00;75767.22;5089481;28;20020;-64
2023/08/11 08:01:29;;;;;;;7.32;3.78;;;;;;;-142.75;100.00;75779.03;5090208;28;20035;-64
2023/08/11 08:03:55;;;;;;;6.32;3.42;;;;;;;-142.75;100.00;75818.41;5089024;28;20035;-65
2023/08/11 08:06:20;;;;;;;10.40;4.32;;;;;;;-142.75;100.00;75779.03;5089852;28;20535;-65
2023/08/11 08:08:46;;;;;;;6.97;3.03;;;;;;;-142.75;100.00;75747.56;5089634;28;20032;-65
2023/08/11 08:11:11;;;;;;;6.22;3.55;;;;;;;-142.75;100.00;75714.09;5089422;28;20024;-65
2023/08/11 08:13:36;;;;;;;6.07;2.90;;;;;;;-142.75;100.00;75692.44;5089148;28;20036;-65
2023/08/11 08:16:02;;;;;;;6.47;2.95;;;;;;;-142.75;100.00;75696.38;5089679;28;20023;-66
2023/08/11 08:18:27;;;;;;;5.25;3.05;;;;;;;-142.75;100.00;75735.75;5069274;28;20109;-65
2023/08/11 08:20:52;;;;;;;5.55;3.13;;;;;;;-142.75;100.00;75733.78;5069144;28;20476;-65
2023/08/11 08:23:19;;;;;;;6.88;3.00;;;;;;;-142.75;100.00;75735.75;5068849;28;20024;-65
2023/08/11 08:25:44;;;;;;;6.55;3.10;;;;;;;-142.75;100.00;75725.91;5069290;28;20027;-66
2023/08/11 08:28:11;;;;;;;6.13;2.88;;;;;;;-142.75;100.00;75723.94;5069596;28;20021;-65
2023/08/11 08:30:36;;;;;;;5.97;3.45;;;;;;;-142.75;100.00;75696.38;5069517;28;20031;-65
2023/08/11 08:33:02;;;;;;;6.45;2.55;;;;;;;-142.75;100.00;75721.97;5068720;28;20602;-66
2023/08/11 08:35:27;;;;;;;6.93;3.30;;;;;;;-142.75;100.00;75702.28;5068797;28;20028;-65
2023/08/11 08:37:53;;;;;;;6.28;2.92;;;;;;;-142.75;100.00;75696.38;5068725;28;20020;-66
2023/08/11 08:40:18;;;;;;;5.55;3.22;;;;;;;-142.75;100.00;75692.44;5068603;28;20424;-65
2023/08/11 08:42:44;;;;;;;6.75;3.20;;;;;;;-142.75;100.00;75706.22;5068424;28;21896;-66
2023/08/11 08:45:09;;;;;;;6.57;3.55;;;;;;;-142.75;100.00;75700.31;5068813;28;20078;-65
2023/08/11 08:47:35;;;;;;;5.50;3.33;;;;;;;-142.75;100.00;75674.72;5068270;28;20016;-65
2023/08/11 08:50:03;;;;;;;8.25;3.10;;;;;;;-142.75;100.00;75645.22;5068482;28;20030;-66
2023/08/11 08:52:29;;;;;;;4.65;2.80;;;;;;;-142.75;100.00;75613.72;5068376;28;20081;-66
2023/08/11 08:54:55;;;;;;;4.45;2.80;;;;;;;-142.75;100.00;75597.97;5068401;28;20085;-65
2023/08/11 08:57:21;;;;;;;6.50;2.88;;;;;;;-142.75;100.00;75564.53;5068344;28;20407;-66
2023/08/11 08:59:47;;;;;;;5.75;3.15;;;;;;;-142.75;100.00;75542.88;5068519;28;20023;-65
2023/08/11 09:02:13;;;;;;;9.13;3.00;;;;;;;-142.75;100.00;75548.78;5068233;28;20020;-65
2023/08/11 09:04:39;;;;;;;5.80;2.67;;;;;;;-142.75;99.63;75556.66;5068281;28;20024;-65
2023/08/11 09:07:05;;;;;;;6.03;2.85;;;;;;;-142.75;100.00;75584.22;5068420;28;20024;-65
2023/08/11 09:09:31;;;;;;;5.70;3.15;;;;;;;-142.75;100.00;75566.50;5068129;28;20031;-65
2023/08/11 09:11:57;;;;;;;4.65;2.28;;;;;;;-142.75;100.00;75538.94;5068632;28;20020;-65
2023/08/11 09:14:22;;;;;;;5.15;2.85;;;;;;;-142.75;100.00;75511.41;5068694;28;20503;-65
2023/08/11 09:16:50;;;;;;;4.30;2.40;;;;;;;-142.75;100.00;75477.94;5068562;28;20051;-64
2023/08/11 09:19:15;;;;;;;3.58;2.15;;;;;;;-142.75;100.00;75460.22;5069622;28;20086;-65
2023/08/11 09:21:43;;;;;;;4.15;2.20;;;;;;;-142.75;100.00;75450.38;5069838;28;20025;-65
2023/08/11 09:24:12;;;;;;;4.50;2.38;;;;;;;-142.75;100.00;75436.59;5067567;28;20056;-64
2023/08/11 09:26:40;;;;;;;5.15;2.25;;;;;;;-142.75;100.00;75434.66;5067796;28;20039;-65
2023/08/11 09:29:05;;;;;;;4.60;2.38;;;;;;;-142.75;99.01;75401.19;5067527;28;20115;-65
2023/08/11 09:31:31;;;;;;;3.45;2.20;;;;;;;-142.75;97.67;75371.66;5068121;28;20039;-64
2023/08/11 09:33:56;;;;;;;4.93;2.17;;;;;;;-142.75;91.44;75373.63;5076170;28;20504;-65
2023/08/11 09:36:21;;;;;;;6.03;2.47;;;;;;;-142.75;98.26;75375.59;5088637;28;20056;-65
2023/08/11 09:38:48;;;;;;;6.85;3.10;;;;;;;-142.75;97.08;75357.91;5088908;28;20532;-65
2023/08/11 09:41:14;;;;;;;7.13;2.67;;;;;;;-142.75;93.37;75352.00;5088008;28;20111;-65
2023/08/11 09:43:49;;;;;;;9.48;3.00;;;;;;;-142.75;94.72;75326.41;5087778;28;20442;-65
2023/08/11 09:46:15;;;;;;;8.63;3.25;;;;;;;-142.75;93.10;75306.72;5087834;28;20035;-65
2023/08/11 09:48:40;;;;;;;5.25;3.15;;;;;;;-142.75;89.88;75332.31;5088046;28;20047;-65
2023/08/11 09:51:12;;;;;;;6.35;3.08;;;;;;;-142.75;89.33;75369.69;5087511;28;20391;-65
2023/08/11 09:53:40;;;;;;;5.57;2.53;;;;;;;-142.75;100.00;75395.28;5087468;28;20031;-65
2023/08/11 09:56:07;;;;;;;6.07;2.70;;;;;;;-142.75;100.00;75379.53;5083290;28;20047;-65
2023/08/11 09:58:37;;;;;;;7.50;3.65;;;;;;;-142.75;91.46;75436.59;5086663;28;20070;-65
2023/08/11 10:01:04;;;;;;;7.47;3.38;;;;;;;-142.75;96.62;75452.34;5087706;28;20433;-65
2023/08/11 10:03:36;;;;;;;7.65;3.33;;;;;;;-142.75;100.00;75507.47;5087366;28;20028;-65
2023/08/11 10:06:03;;;;;;;6.63;3.25;;;;;;;-142.75;100.00;75454.31;5087710;28;20042;-65
2023/08/11 10:08:30;;;;;;;7.85;3.33;;;;;;;-142.75;99.72;75413.00;5088104;28;20032;-64
2023/08/11 10:10:55;;;;;;;7.10;3.63;;;;;;;-142.75;97.11;75416.94;5087424;28;20510;-65
2023/08/11 10:13:26;;;;;;;5.63;3.53;;;;;;;-142.75;92.14;75409.06;5087312;28;20077;-65
2023/08/11 10:15:54;;;;;;;7.03;4.22;;;;;;;-142.75;93.09;75432.69;5087786;28;20024;-64
2023/08/11 10:18:20;;;;;;;6.47;3.72;;;;;;;-142.75;98.83;75448.41;5086289;28;20594;-64
2023/08/11 10:20:49;;;;;;;7.18;2.83;;;;;;;-142.75;100.00;75409.06;5088903;28;20120;-63
2023/08/11 10:23:17;;;;;;;8.07;3.65;;;;;;;-142.75;100.00;75393.31;5091345;28;20031;-64
2023/08/11 10:25:44;;;;;;;5.72;3.30;;;;;;;-142.75;96.80;75409.06;5074926;28;20054;-65
2023/08/11 10:28:12;;;;;;;11.85;3.05;;;;;;;-142.75;96.00;75363.78;5070424;28;20112;-64
2023/08/11 10:30:38;;;;;;;8.45;2.85;;;;;;;-142.75;97.61;75342.16;5071097;28;20024;-65
2023/08/11 10:33:05;;;;;;;5.78;2.67;;;;;;;-142.75;100.00;75294.94;5070219;28;20628;-65
2023/08/11 10:35:46;;;;;;;4.63;2.65;;;;;;;-142.75;99.59;75296.88;5070507;28;20103;-64
2023/08/11 10:38:11;;;;;;;3.95;2.75;;;;;;;-142.75;93.24;75298.84;5071227;28;20105;-64
2023/08/11 10:40:38;;;;;;;5.15;2.95;;;;;;;-142.75;87.72;75292.97;5070541;28;20484;-64
2023/08/11 10:43:04;;;;;;;5.00;3.17;;;;;;;-142.75;89.99;75340.19;5070523;28;20111;-65
2023/08/11 10:45:36;;;;;;;5.05;2.97;;;;;;;-142.75;90.47;75365.75;5070935;28;20150;-65
2023/08/11 10:48:07;;;;;;;5.63;3.20;;;;;;;-142.75;94.71;75332.31;5071117;28;20052;-65
2023/08/11 10:50:33;;;;;;;9.18;4.00;;;;;;;-142.75;96.61;75346.09;5070917;28;20034;-65
2023/08/11 10:53:06;;;;;;;7.82;3.38;;;;;;;-142.75;90.41;75314.59;5070658;28;20028;-64
2023/08/11 10:55:36;;;;;;;7.00;3.05;;;;;;;-142.75;93.54;75287.06;5070811;28;20016;-65
2023/08/11 10:58:17;;;;;;;5.57;3.00;;;;;;;-142.75;93.40;75255.56;5070864;28;20020;-65
2023/08/11 11:00:42;;;;;;;7.03;3.50;;;;;;;-142.75;90.23;75259.50;5070834;28;20020;-65
2023/08/11 11:03:09;;;;;;;6.30;2.70;;;;;;;-142.75;98.18;75226.06;5070192;28;20024;-65